createdAt,value
2023-01-28T00:02:04.698Z,12.20
2023-01-28T00:04:33.933Z,11.45
2023-01-28T00:07:01.831Z,13.70
2023-01-28T00:09:29.673Z,13.45
2023-01-28T00:11:57.505Z,12.05
2023-01-28T00:14:25.432Z,12.52
2023-01-28T00:16:53.249Z,12.40
2023-01-28T00:19:21.130Z,15.07
2023-01-28T00:21:50.654Z,13.70
2023-01-28T00:24:18.474Z,15.27
2023-01-28T00:26:46.422Z,13.65
2023-01-28T00:29:14.643Z,12.25
2023-01-28T00:31:45.184Z,14.13
2023-01-28T00:34:13.137Z,14.43
2023-01-28T00:36:42.532Z,16.75
2023-01-28T00:39:15.140Z,12.95
2023-01-28T00:41:43.559Z,13.88
2023-01-28T00:44:11.621Z,13.18
2023-01-28T00:46:42.036Z,12.98
2023-01-28T00:49:10.029Z,14.75
2023-01-28T00:51:37.904Z,13.18
2023-01-28T00:54:06.032Z,13.32
2023-01-28T00:56:36.949Z,14.93
2023-01-28T00:59:06.910Z,17.17
2023-01-28T01:01:35.443Z,13.25
2023-01-28T01:04:03.602Z,15.27
2023-01-28T01:06:33.414Z,15.75
2023-01-28T01:09:01.456Z,14.13
2023-01-28T01:11:29.359Z,13.73
2023-01-28T01:14:00.067Z,12.90
2023-01-28T01:16:30.179Z,13.52
2023-01-28T01:18:58.056Z,16.38
2023-01-28T01:21:29.052Z,14.40
2023-01-28T01:23:57.137Z,14.18
2023-01-28T01:26:27.472Z,14.55
2023-01-28T01:28:59.783Z,17.98
2023-01-28T01:31:27.689Z,15.82
2023-01-28T01:33:55.422Z,14.45
2023-01-28T01:36:23.721Z,14.85
2023-01-28T01:38:54.643Z,13.60
2023-01-28T01:41:29.735Z,13.98
2023-01-28T01:44:00.606Z,13.80
2023-01-28T01:46:34.296Z,13.88
2023-01-28T01:49:07.781Z,13.13
2023-01-28T01:51:36.747Z,13.82
2023-01-28T01:54:06.084Z,15.07
2023-01-28T01:56:38.213Z,14.43
2023-01-28T01:59:11.022Z,14.82
2023-01-28T02:01:38.889Z,17.00
2023-01-28T02:04:10.387Z,14.82
2023-01-28T02:06:39.088Z,14.73
2023-01-28T02:09:08.776Z,13.95
2023-01-28T02:11:37.236Z,14.80
2023-01-28T02:14:09.266Z,15.25
2023-01-28T02:19:07.499Z,13.23
2023-01-28T02:22:07.186Z,14.38
2023-01-28T02:24:59.246Z,13.82
2023-01-28T02:27:31.675Z,13.07
2023-01-28T02:30:07.472Z,14.90
2023-01-28T02:32:40.096Z,14.25
2023-01-28T02:35:13.606Z,14.57
2023-01-28T02:37:47.523Z,14.32
2023-01-28T02:40:19.807Z,15.25
2023-01-28T02:42:47.913Z,15.50
2023-01-28T02:45:47.492Z,13.25
2023-01-28T02:48:15.119Z,14.00
2023-01-28T02:50:50.465Z,15.98
2023-01-28T02:53:41.165Z,13.25
2023-01-28T02:56:16.619Z,14.93
2023-01-28T02:58:48.665Z,14.38
2023-01-28T03:01:22.166Z,14.23
2023-01-28T03:03:57.421Z,14.27
2023-01-28T03:06:30.429Z,13.02
2023-01-28T03:09:19.038Z,12.30
2023-01-28T03:12:07.083Z,13.15
2023-01-28T03:14:54.620Z,12.25
2023-01-28T03:17:45.484Z,13.63
2023-01-28T03:20:31.800Z,12.75
2023-01-28T03:23:20.838Z,14.25
2023-01-28T03:26:08.170Z,13.80
2023-01-28T03:28:55.609Z,13.32
2023-01-28T03:31:41.484Z,13.10
2023-01-28T03:34:30.725Z,14.48
2023-01-28T03:36:59.786Z,13.70
2023-01-28T03:39:45.646Z,18.58
2023-01-28T03:42:15.788Z,13.70
2023-01-28T03:45:05.419Z,13.52
2023-01-28T03:47:34.030Z,13.27
2023-01-28T03:50:07.366Z,14.18
2023-01-28T03:52:53.537Z,15.57
2023-01-28T03:55:27.170Z,14.23
2023-01-28T03:57:55.031Z,15.50
2023-01-28T04:00:23.385Z,14.90
2023-01-28T04:02:51.614Z,17.35
2023-01-28T04:05:23.406Z,16.65
2023-01-28T04:07:52.390Z,14.88
2023-01-28T04:10:43.982Z,14.27
2023-01-28T04:13:21.427Z,17.63
2023-01-28T04:15:49.443Z,16.52
2023-01-28T04:18:19.681Z,17.85
2023-01-28T04:20:53.218Z,14.00
2023-01-28T04:23:21.313Z,16.35
2023-01-28T04:25:51.538Z,16.55
2023-01-28T04:28:20.599Z,19.02
2023-01-28T04:30:49.250Z,14.95
2023-01-28T04:33:35.880Z,14.65
2023-01-28T04:36:15.201Z,15.77
2023-01-28T04:38:47.026Z,17.13
2023-01-28T04:41:33.740Z,15.35
2023-01-28T04:44:07.753Z,16.80
2023-01-28T04:46:54.367Z,14.82
2023-01-28T04:49:37.031Z,16.30
2023-01-28T04:52:22.497Z,15.88
2023-01-28T04:55:05.128Z,15.10
2023-01-28T04:57:33.381Z,14.55
2023-01-28T05:00:01.482Z,16.58
2023-01-28T05:02:29.501Z,15.40
2023-01-28T05:04:57.332Z,14.10
2023-01-28T05:07:57.126Z,18.27
2023-01-28T05:10:25.715Z,15.73
2023-01-28T05:12:54.709Z,16.15
2023-01-28T05:15:23.212Z,16.23
2023-01-28T05:17:55.761Z,14.30
2023-01-28T05:20:24.292Z,16.38
2023-01-28T05:22:52.566Z,14.40
2023-01-28T05:25:24.912Z,15.38
2023-01-28T05:27:53.294Z,14.90
2023-01-28T05:30:21.783Z,14.55
2023-01-28T05:32:49.804Z,12.95
2023-01-28T05:35:22.196Z,15.48
2023-01-28T05:37:50.290Z,14.98
2023-01-28T05:40:19.378Z,14.55
2023-01-28T05:42:48.649Z,14.93
2023-01-28T05:45:37.204Z,13.70
2023-01-28T05:48:11.470Z,14.38
2023-01-28T05:50:58.127Z,15.20
2023-01-28T05:53:35.263Z,15.25
2023-01-28T05:56:03.676Z,14.32
2023-01-28T05:58:34.866Z,14.75
2023-01-28T06:01:04.721Z,14.52
2023-01-28T06:03:40.997Z,13.65
2023-01-28T06:06:09.161Z,15.05
2023-01-28T06:08:38.326Z,15.35
2023-01-28T06:11:06.324Z,13.82
2023-01-28T06:13:37.766Z,15.80
2023-01-28T06:16:25.444Z,14.20
2023-01-28T06:19:20.686Z,13.90
2023-01-28T06:21:48.658Z,13.50
2023-01-28T06:24:19.518Z,15.05
2023-01-28T06:26:47.462Z,13.57
2023-01-28T06:29:16.984Z,17.20
2023-01-28T06:31:45.028Z,15.80
2023-01-28T06:34:13.188Z,15.43
2023-01-28T06:36:41.195Z,15.50
2023-01-28T06:39:09.066Z,14.68
2023-01-28T06:41:37.035Z,16.63
2023-01-28T06:44:05.042Z,15.48
2023-01-28T06:46:34.279Z,15.07
2023-01-28T06:49:02.466Z,15.73
2023-01-28T06:51:30.180Z,14.15
2023-01-28T06:53:58.001Z,17.40
2023-01-28T06:56:25.830Z,14.98
2023-01-28T06:58:53.884Z,14.40
2023-01-28T07:01:21.688Z,14.80
2023-01-28T07:03:50.863Z,14.82
2023-01-28T07:06:18.969Z,14.48
2023-01-28T07:08:46.818Z,21.08
2023-01-28T07:11:14.601Z,12.63
2023-01-28T07:13:43.508Z,14.48
2023-01-28T07:16:11.392Z,15.30
2023-01-28T07:18:39.222Z,12.93
2023-01-28T07:21:08.677Z,12.65
2023-01-28T07:23:36.722Z,12.93
2023-01-28T07:26:05.148Z,13.20
2023-01-28T07:28:33.231Z,13.43
2023-01-28T07:31:01.163Z,13.40
2023-01-28T07:33:29.119Z,13.27
2023-01-28T07:35:57.038Z,13.43
2023-01-28T07:38:26.431Z,12.82
2023-01-28T07:40:54.649Z,15.13
2023-01-28T07:43:22.556Z,12.13
2023-01-28T07:45:51.265Z,14.27
2023-01-28T07:48:19.066Z,12.77
2023-01-28T07:50:48.784Z,13.32
2023-01-28T07:53:16.684Z,14.75
2023-01-28T07:55:46.049Z,13.50
2023-01-28T07:58:13.962Z,14.38
2023-01-28T08:00:41.968Z,13.55
2023-01-28T08:03:14.470Z,12.43
2023-01-28T08:05:45.944Z,12.98
2023-01-28T08:08:14.231Z,15.25
2023-01-28T08:10:42.806Z,13.85
2023-01-28T08:13:13.013Z,14.68
2023-01-28T08:15:41.264Z,14.45
2023-01-28T08:18:10.648Z,15.27
2023-01-28T08:20:38.513Z,14.85
2023-01-28T08:23:07.897Z,13.07
2023-01-28T08:25:36.296Z,13.93
2023-01-28T08:28:05.205Z,15.00
2023-01-28T08:30:34.626Z,14.45
2023-01-28T08:33:02.570Z,13.63
2023-01-28T08:35:30.508Z,13.63
2023-01-28T08:38:00.761Z,15.55
2023-01-28T08:40:29.377Z,15.75
2023-01-28T08:42:57.514Z,14.23
2023-01-28T08:45:28.004Z,15.90
2023-01-28T08:47:58.752Z,15.10
2023-01-28T08:50:28.102Z,16.13
2023-01-28T08:52:57.087Z,15.48
2023-01-28T08:55:25.095Z,14.65
2023-01-28T08:57:53.117Z,15.25
2023-01-28T09:00:21.683Z,17.10
2023-01-28T09:02:52.155Z,17.25
2023-01-28T09:05:21.954Z,16.48
2023-01-28T09:07:49.888Z,19.50
2023-01-28T09:10:20.432Z,14.77
2023-01-28T09:12:48.800Z,18.00
2023-01-28T09:15:16.965Z,20.20
2023-01-28T09:17:44.831Z,24.38
2023-01-28T09:20:14.065Z,14.02
2023-01-28T09:22:43.492Z,14.38
2023-01-28T09:25:11.224Z,14.85
2023-01-28T09:27:39.322Z,16.65
2023-01-28T09:30:08.127Z,12.50
2023-01-28T09:32:35.879Z,15.57
2023-01-28T09:35:03.898Z,14.77
2023-01-28T09:37:31.936Z,17.92
2023-01-28T09:40:01.076Z,14.48
2023-01-28T09:42:40.614Z,12.75
2023-01-28T09:45:16.118Z,11.32
2023-01-28T09:47:46.226Z,13.55
2023-01-28T09:50:17.999Z,13.80
2023-01-28T09:52:46.473Z,9.70
2023-01-28T09:55:20.628Z,13.30
2023-01-28T09:57:52.092Z,13.95
2023-01-28T10:00:22.694Z,10.40
2023-01-28T10:03:03.186Z,10.82
2023-01-28T10:05:39.204Z,11.70
2023-01-28T10:08:19.756Z,12.60
2023-01-28T10:10:52.173Z,12.30
2023-01-28T10:13:31.786Z,20.90
2023-01-28T10:16:16.827Z,24.02
2023-01-28T10:18:49.912Z,15.68
2023-01-28T10:21:22.169Z,26.98
2023-01-28T10:23:58.658Z,12.60
2023-01-28T10:26:32.983Z,29.08
2023-01-28T10:29:05.727Z,41.92
2023-01-28T10:31:39.851Z,14.57
2023-01-28T10:34:08.516Z,11.32
2023-01-28T10:36:36.778Z,9.98
2023-01-28T10:39:04.852Z,8.80
2023-01-28T10:41:34.656Z,9.60
2023-01-28T10:44:02.585Z,11.23
2023-01-28T10:46:32.102Z,12.85
2023-01-28T10:49:13.423Z,12.55
2023-01-28T10:51:43.402Z,9.65
2023-01-28T10:54:21.559Z,11.13
2023-01-28T10:56:56.457Z,10.25
2023-01-28T10:59:28.257Z,13.80
2023-01-28T11:02:03.687Z,9.43
2023-01-28T11:04:33.246Z,10.68
2023-01-28T11:07:02.302Z,10.05
2023-01-28T11:09:32.696Z,7.57
2023-01-28T11:12:13.610Z,10.40
2023-01-28T11:14:51.218Z,11.15
2023-01-28T11:17:25.294Z,8.82
2023-01-28T11:19:54.607Z,9.32
2023-01-28T11:22:34.395Z,10.48
2023-01-28T11:25:04.466Z,11.43
2023-01-28T11:27:34.471Z,10.23
2023-01-28T11:30:05.187Z,8.43
2023-01-28T11:32:33.104Z,9.65
2023-01-28T11:35:01.445Z,10.00
2023-01-28T11:37:31.742Z,6.30
2023-01-28T11:40:05.066Z,7.72
2023-01-28T11:42:34.495Z,13.13
2023-01-28T11:45:02.784Z,8.60
2023-01-28T11:47:43.358Z,7.97
2023-01-28T11:50:19.913Z,6.47
2023-01-28T11:53:06.828Z,9.30
2023-01-28T11:55:53.607Z,6.97
2023-01-28T11:58:27.243Z,10.52
2023-01-28T12:01:03.455Z,8.73
2023-01-28T12:04:09.620Z,10.20
2023-01-28T12:06:48.520Z,7.28
2023-01-28T12:09:22.498Z,8.73
2023-01-28T12:14:50.053Z,5.78
2023-01-28T12:17:26.529Z,6.53
2023-01-28T12:20:02.641Z,7.53
2023-01-28T12:22:57.097Z,9.80
2023-01-28T12:25:47.952Z,6.57
2023-01-28T12:28:33.284Z,7.75
2023-01-28T12:31:14.777Z,8.50
2023-01-28T12:33:52.022Z,6.82
2023-01-28T12:36:31.641Z,7.65
2023-01-28T12:39:08.285Z,7.53
2023-01-28T12:41:40.135Z,7.90
2023-01-28T12:44:12.323Z,7.32
2023-01-28T12:46:44.126Z,10.27
2023-01-28T12:49:16.538Z,8.98
2023-01-28T12:51:53.778Z,8.73
2023-01-28T12:54:26.065Z,10.45
2023-01-28T12:56:55.865Z,9.18
2023-01-28T12:59:27.137Z,11.20
2023-01-28T13:02:03.313Z,9.52
2023-01-28T13:04:39.835Z,8.65
2023-01-28T13:07:12.185Z,11.32
2023-01-28T13:09:45.000Z,10.68
2023-01-28T13:12:13.956Z,10.23
2023-01-28T13:14:44.122Z,10.45
2023-01-28T13:17:24.437Z,9.73
2023-01-28T13:19:55.832Z,12.82
2023-01-28T13:22:32.197Z,10.45
2023-01-28T13:25:15.300Z,10.95
2023-01-28T13:27:44.229Z,12.47
2023-01-28T13:30:26.086Z,9.35
2023-01-28T13:33:00.376Z,10.05
2023-01-28T13:35:35.873Z,8.55
2023-01-28T13:38:11.888Z,11.48
2023-01-28T13:40:41.687Z,10.38
2023-01-28T13:43:26.763Z,6.90
2023-01-28T13:45:59.122Z,9.70
2023-01-28T13:48:34.222Z,7.97
2023-01-28T13:51:03.593Z,7.40
2023-01-28T13:53:40.713Z,8.65
2023-01-28T13:56:11.723Z,11.40
2023-01-28T13:59:19.942Z,12.95
2023-01-28T14:02:05.653Z,9.52
2023-01-28T14:05:12.351Z,15.73
2023-01-28T14:08:17.376Z,11.13
2023-01-28T14:10:58.404Z,9.02
2023-01-28T14:13:43.726Z,11.70
2023-01-28T14:16:30.895Z,10.90
2023-01-28T14:19:01.882Z,10.35
2023-01-28T14:21:35.190Z,9.57
2023-01-28T14:24:05.669Z,8.27
2023-01-28T14:26:41.080Z,8.23
2023-01-28T14:29:23.875Z,11.93
2023-01-28T14:31:54.568Z,10.63
2023-01-28T14:34:25.684Z,10.60
2023-01-28T14:36:56.372Z,10.43
2023-01-28T14:39:28.290Z,11.23
2023-01-28T14:42:02.277Z,13.60
2023-01-28T14:47:11.592Z,12.25
2023-01-28T14:49:47.257Z,14.75
2023-01-28T14:52:28.737Z,11.40
2023-01-28T14:55:06.536Z,15.70
2023-01-28T14:57:46.313Z,23.30
2023-01-28T15:00:20.287Z,32.97
2023-01-28T15:02:49.835Z,16.80
2023-01-28T15:05:20.245Z,12.20
2023-01-28T15:07:50.742Z,13.23
2023-01-28T15:10:22.898Z,13.15
2023-01-28T15:12:54.335Z,10.65
2023-01-28T15:15:27.767Z,10.10
2023-01-28T15:18:03.071Z,12.20
2023-01-28T15:20:32.114Z,12.07
2023-01-28T15:23:02.454Z,12.00
2023-01-28T15:25:32.541Z,12.65
2023-01-28T15:28:02.387Z,16.67
2023-01-28T15:30:32.243Z,16.63
2023-01-28T15:33:02.036Z,14.68
2023-01-28T15:35:30.295Z,12.20
2023-01-28T15:38:02.020Z,12.30
2023-01-28T15:40:32.949Z,15.02
2023-01-28T15:43:03.923Z,12.25
2023-01-28T15:45:33.892Z,9.98
2023-01-28T15:48:09.520Z,9.35
2023-01-28T15:50:38.918Z,10.40
2023-01-28T15:53:11.191Z,11.60
2023-01-28T15:55:43.434Z,10.48
2023-01-28T15:58:28.481Z,12.60
2023-01-28T16:01:15.510Z,11.75
2023-01-28T16:03:48.903Z,11.85
2023-01-28T16:06:19.450Z,9.73
2023-01-28T16:08:52.867Z,17.23
2023-01-28T16:13:58.863Z,10.90
2023-01-28T16:16:32.261Z,22.02
2023-01-28T16:19:00.849Z,20.50
2023-01-28T16:21:30.688Z,35.72
2023-01-28T16:24:03.700Z,37.92
2023-01-28T16:26:35.205Z,25.95
2023-01-28T16:29:15.044Z,26.65
2023-01-28T16:31:42.971Z,28.08
2023-01-28T16:34:11.962Z,32.80
2023-01-28T16:36:40.547Z,22.73
2023-01-28T16:39:09.220Z,14.02
2023-01-28T16:41:42.803Z,15.82
2023-01-28T16:44:14.172Z,14.32
2023-01-28T16:46:42.489Z,15.23
2023-01-28T16:49:10.833Z,18.25
2023-01-28T16:51:39.333Z,20.83
2023-01-28T16:54:07.405Z,14.60
2023-01-28T16:56:45.309Z,14.23
2023-01-28T16:59:16.762Z,16.65
2023-01-28T17:01:45.209Z,13.07
2023-01-28T17:04:16.376Z,14.85
2023-01-28T17:06:49.088Z,10.57
2023-01-28T17:09:19.091Z,15.00
2023-01-28T17:11:48.144Z,11.52
2023-01-28T17:14:18.925Z,15.02
2023-01-28T17:16:51.113Z,17.75
2023-01-28T17:19:20.715Z,11.38
2023-01-28T17:21:48.927Z,14.90
2023-01-28T17:24:17.290Z,12.70
2023-01-28T17:26:46.257Z,16.58
2023-01-28T17:29:44.161Z,13.63
2023-01-28T17:32:28.771Z,14.90
2023-01-28T17:38:14.048Z,16.05
2023-01-28T17:40:43.902Z,15.82
2023-01-28T17:43:48.105Z,19.48
2023-01-28T17:46:30.367Z,19.33
2023-01-28T17:49:07.508Z,18.45
2023-01-28T17:51:45.866Z,17.92
2023-01-28T17:54:18.701Z,19.15
2023-01-28T17:56:51.831Z,23.20
2023-01-28T17:59:24.954Z,19.60
2023-01-28T18:01:55.607Z,17.90
2023-01-28T18:04:25.681Z,20.80
2023-01-28T18:06:56.116Z,17.80
2023-01-28T18:09:25.250Z,17.77
2023-01-28T18:11:53.790Z,17.38
2023-01-28T18:14:22.596Z,19.90
2023-01-28T18:16:51.709Z,16.30
2023-01-28T18:19:23.054Z,18.20
2023-01-28T18:21:53.653Z,20.00
2023-01-28T18:24:23.957Z,17.40
2023-01-28T18:26:52.837Z,20.55
2023-01-28T18:29:25.160Z,17.42
2023-01-28T18:31:59.186Z,20.05
2023-01-28T18:34:32.147Z,19.30
2023-01-28T18:37:09.431Z,18.63
2023-01-28T18:39:51.811Z,20.08
2023-01-28T18:42:31.071Z,18.25
2023-01-28T18:45:20.268Z,17.42
2023-01-28T18:47:52.537Z,17.58
2023-01-28T18:50:27.400Z,21.02
2023-01-28T18:53:14.939Z,20.48
2023-01-28T18:55:51.869Z,21.55
2023-01-28T18:58:25.238Z,20.65
2023-01-28T19:00:55.939Z,21.80
2023-01-28T19:03:25.779Z,20.83
2023-01-28T19:06:03.452Z,18.90
2023-01-28T19:08:44.457Z,23.80
2023-01-28T19:11:16.215Z,17.65
2023-01-28T19:13:54.301Z,24.30
2023-01-28T19:16:24.300Z,18.67
2023-01-28T19:18:57.227Z,20.35
2023-01-28T19:21:34.269Z,21.83
2023-01-28T19:24:09.125Z,22.60
2023-01-28T19:26:40.521Z,23.02
2023-01-28T19:29:15.662Z,19.95
2023-01-28T19:31:59.262Z,19.70
2023-01-28T19:34:50.524Z,18.88
2023-01-28T19:37:38.236Z,19.65
2023-01-28T19:40:09.963Z,19.20
2023-01-28T19:42:43.205Z,16.25
2023-01-28T19:45:19.021Z,19.83
2023-01-28T19:47:49.928Z,20.20
2023-01-28T19:50:21.125Z,20.77
2023-01-28T19:52:54.499Z,21.23
2023-01-28T19:55:24.825Z,22.35
2023-01-28T19:57:53.332Z,18.38
2023-01-28T20:00:21.827Z,20.10
2023-01-28T20:02:54.979Z,21.48
2023-01-28T20:07:59.388Z,22.88
2023-01-28T20:10:36.279Z,21.65
2023-01-28T20:13:08.228Z,21.48
2023-01-28T20:15:44.073Z,19.25
2023-01-28T20:18:14.346Z,20.05
2023-01-28T20:20:42.575Z,20.05
2023-01-28T20:23:13.150Z,21.33
2023-01-28T20:25:42.038Z,21.52
2023-01-28T20:28:11.446Z,20.98
2023-01-28T20:30:39.589Z,20.02
2023-01-28T20:33:08.544Z,23.67
2023-01-28T20:35:37.026Z,20.05
2023-01-28T20:38:04.892Z,21.25
2023-01-28T20:40:34.409Z,22.80
2023-01-28T20:43:02.316Z,30.65
2023-01-28T20:45:32.070Z,26.55
2023-01-28T20:48:02.128Z,21.27
2023-01-28T20:50:31.583Z,20.80
2023-01-28T20:52:59.540Z,23.20
2023-01-28T20:55:28.652Z,21.25
2023-01-28T20:57:57.867Z,25.75
2023-01-28T21:00:25.902Z,21.65
2023-01-28T21:02:53.838Z,23.30
2023-01-28T21:05:21.995Z,24.60
2023-01-28T21:07:49.843Z,25.20
2023-01-28T21:10:18.520Z,27.92
2023-01-28T21:12:46.636Z,21.83
2023-01-28T21:15:15.868Z,25.70
2023-01-28T21:17:43.684Z,26.48
2023-01-28T21:20:13.085Z,25.02
2023-01-28T21:22:41.062Z,23.23
2023-01-28T21:25:10.238Z,23.73
2023-01-28T21:27:38.115Z,25.10
2023-01-28T21:30:06.960Z,24.83
2023-01-28T21:32:36.929Z,23.58
2023-01-28T21:35:05.305Z,23.77
2023-01-28T21:37:33.050Z,24.98
2023-01-28T21:40:01.033Z,24.55
2023-01-28T21:42:29.065Z,26.20
2023-01-28T21:44:56.936Z,26.30
2023-01-28T21:47:26.400Z,24.60
2023-01-28T21:49:55.671Z,24.10
2023-01-28T21:52:23.698Z,23.92
2023-01-28T21:54:51.600Z,24.92
2023-01-28T21:57:20.195Z,26.33
2023-01-28T21:59:50.172Z,27.13
2023-01-28T22:02:19.237Z,23.92
2023-01-28T22:04:49.723Z,26.08
2023-01-28T22:07:21.583Z,22.77
2023-01-28T22:09:50.479Z,27.05
2023-01-28T22:12:19.272Z,27.40
2023-01-28T22:14:48.641Z,28.35
2023-01-28T22:17:18.591Z,27.45
2023-01-28T22:19:50.783Z,28.02
2023-01-28T22:22:20.479Z,26.75
2023-01-28T22:24:51.695Z,25.10
2023-01-28T22:27:19.735Z,24.60
2023-01-28T22:29:47.540Z,27.25
2023-01-28T22:32:15.844Z,25.33
2023-01-28T22:34:46.017Z,25.60
2023-01-28T22:37:15.206Z,27.48
2023-01-28T22:39:44.471Z,25.50
2023-01-28T22:42:12.306Z,28.90
2023-01-28T22:44:40.537Z,25.50
2023-01-28T22:47:08.461Z,27.15
2023-01-28T22:49:36.320Z,27.23
2023-01-28T22:52:04.311Z,24.02
2023-01-28T22:54:32.480Z,30.52
2023-01-28T22:57:01.679Z,30.20
2023-01-28T22:59:29.665Z,28.80
2023-01-28T23:02:00.040Z,27.95
2023-01-28T23:04:27.948Z,29.55
2023-01-28T23:06:55.727Z,26.30
2023-01-28T23:09:24.137Z,31.33
2023-01-28T23:11:52.181Z,25.17
2023-01-28T23:14:39.099Z,30.23
2023-01-28T23:17:24.519Z,27.30
2023-01-28T23:20:24.568Z,27.80
2023-01-28T23:23:09.874Z,30.55
2023-01-28T23:25:37.853Z,27.20
2023-01-28T23:28:05.905Z,28.30
2023-01-28T23:30:35.433Z,27.05
2023-01-28T23:33:04.526Z,28.75
2023-01-28T23:35:32.789Z,28.70
2023-01-28T23:38:00.807Z,31.33
2023-01-28T23:40:29.004Z,28.13
2023-01-28T23:42:58.248Z,31.90
2023-01-28T23:45:26.165Z,29.95
2023-01-28T23:47:55.318Z,26.98
2023-01-28T23:50:23.797Z,26.67
2023-01-28T23:52:51.679Z,28.52
2023-01-28T23:55:19.939Z,28.35
2023-01-28T23:57:47.837Z,28.15
